Germantown Hills, Illinois
Current Conditions -  °F | °C
As of 2:35 AM on Friday 28 Nov 2014 (Local Time) from KC75 Reporting Station
Overcast Overcast  
Wind Chill: 16°   Ceiling: 2600
Heat Index: 16°   Visibility: 10mi
Dew Point: 10°   Wind: 3mph
Humidity: 76%   Direction: 120°ESE
Pressure: 30.37"   Gusts: NA
Location:  40.7942°N, 89.4075°W
Report Text: KC75 280835Z AUTO 12003KT 10SM BKN026 OVC034 M09/M12 A3037 RMK AO2 T10901125
Loading
Personal Weather Stations






























Interactive Weather Map New forecast layout! Learn more

10-Day Weather Forecast

Advertisements
Track Severe Weather on mobile